Kezdőlap
METAR-TAF:

METAR-TAF

Repülőterek :

South St. Paul Municipal Airport (Richard E. Fleming Field)

South St. Paul, Minnesota, Amerikai Egyesült Államok

földrajzi szélesség: 44-51-26N, földrajzi hosszúság: 093-01-58W, magasság: 250 m

Jelenlegi meteorológiai megfigyelések

A jelentés 16 perccel ezelõtt készült, 08:55 UTC
Szélcsend
Hőmérséklet 5°C
Páratartalom 75%
Légköri nyomás 1013 hPa
Látótávolság: 16.1 km
Derült ég

METAR: KSGS 200855Z AUTO 00000KT 10SM CLR 05/01 A2990 RMK AO2 T00450008

Idő: 04:11 (09:11 UTC)


TAF: hiányzik

Meteorológiai megfigyelések és előrejelzések több, mint 4000 repülőtéren (METAR és TAF jelentéseket).

A térképen piros és sárga pontok jelzik az elérhető meteorológiai állomásokat.

Mozgassa az egeret a pont fölött, hogy megjelenjen az állomás neve.

Azután kattintson az időjárási megfigyelések és előrejelzések megtekintéséhez.

A térkép megváltoztatása: kattintson a fekete keresztel jelölt zöld gombra ráközelítéshez, a vonallal jelölt zöld gombra távolításhoz, vagy a zöld nyilakra a szomszédos térképek eléréséhez.


METAR-TAF: